Main page
METAR-TAF:

METAR-TAF

Airports :

Multan International Airport

Multan, Pakistan

latitude: 30-12-12N, longitude: 71-25-09E, elevation: 122 m

Current weather observation

The report was made 1 hour and 6 minutes ago, at 18:00 UTC
Calm wind
Temperature 19°C
Humidity 73%
Pressure 1011 hPa
Visibility: 1000 m
Few clouds at a height of 4000 ft
Scattered clouds at a height of 10000 ft
smoke

METAR: OPMT 131800Z 00000KT 1000 FU FEW040 SCT100 19/14 Q1011 NOSIG

Time: 00:06 (19:06 UTC)

Forecast

The report was made 3 hours and 11 minutes ago, at 15:55 UTC
Forecast valid from 13 at 18 UTC to 14 at 12 UTC
Wind 5 kt from the Northeast
Visibility: 1200 m
Scattered clouds at a height of 12000 ft
smoke
Probability 30% :
Temporary
from 14 at 01 UTC to 14 at 05 UTC
Wind kt from the North
Visibility: 0600 m
Scattered clouds at a height of 12000 ft
mist

TAF: OPMT 131555Z 1318/1412 05005KT 1200 FU SCT120 TN14/1401Z TX25/1410Z PROB30 TEMPO 1401/1405 00000KT 0600 BR SCT120

Weather observations and forecasts of more than 4000 airports (METAR and TAF reports).

The available stations are represented by yellow and red dots on the map.

Hover mouse over dot to see the name of the station.

Then click to see weather observations and forecasts.

To change the map : click on the green buttons with a black cross to zoom in, on the green button with a dash to zoom out, or on the green arrows for adjacent maps.


METAR-TAF: